Time;durP1;ratioP1;P1;durP2;ratioP2;P2;SDS_P1;SDS_P2;PMS_P1;PMS_P2;Temp;Humidity;BMP_temperature;BMP_pressure;BME280_temperature;BME280_humidity;BME280_pressure;Samples;Min_cycle;Max_cycle;Signal;HPM_P1;HPM_P2
2020/12/28 00:00:09;;;;;;;21.50;13.20;;;0.60;89.30;;;;;;5043705;28;20194;-80
2020/12/28 00:02:57;;;;;;;21.30;12.93;;;0.70;89.30;;;;;;5044117;28;20251;-80
2020/12/28 00:05:26;;;;;;;22.13;13.70;;;0.60;89.20;;;;;;5061166;28;20203;-82
2020/12/28 00:07:55;;;;;;;22.03;13.33;;;0.60;89.40;;;;;;5047166;28;20444;-79
2020/12/28 00:10:22;;;;;;;20.93;12.57;;;0.60;89.60;;;;;;5051023;28;20177;-81
2020/12/28 00:12:50;;;;;;;21.53;12.87;;;0.70;89.60;;;;;;5048243;28;20195;-82
2020/12/28 00:15:19;;;;;;;20.73;13.13;;;0.70;89.60;;;;;;5046874;28;20206;-81
2020/12/28 00:17:48;;;;;;;21.40;12.67;;;0.70;89.50;;;;;;5055817;28;20249;-82
2020/12/28 00:20:18;;;;;;;21.20;13.30;;;0.70;89.50;;;;;;5033525;28;20175;-81
2020/12/28 00:22:47;;;;;;;19.83;12.53;;;0.70;89.70;;;;;;5049176;28;20415;-79
2020/12/28 00:25:18;;;;;;;20.00;12.53;;;0.70;89.70;;;;;;5047932;28;20220;-81
2020/12/28 00:27:46;;;;;;;21.23;12.63;;;0.70;89.80;;;;;;5048766;28;20177;-82
2020/12/28 00:30:14;;;;;;;21.57;12.50;;;0.70;89.90;;;;;;5046715;28;20288;-82
2020/12/28 00:32:42;;;;;;;22.07;13.40;;;0.60;90.00;;;;;;5050319;28;20367;-80
2020/12/28 00:35:11;;;;;;;18.63;12.20;;;0.70;90.00;;;;;;5046575;28;20200;-81
2020/12/28 00:37:38;;;;;;;20.43;13.33;;;0.60;90.10;;;;;;5047135;28;20216;-81
2020/12/28 00:40:08;;;;;;;20.67;13.27;;;0.60;90.00;;;;;;5045091;28;20223;-82
2020/12/28 00:42:38;;;;;;;19.90;12.97;;;0.60;90.10;;;;;;5044460;28;20295;-82
2020/12/28 00:45:07;;;;;;;19.80;12.77;;;0.60;90.10;;;;;;5039042;28;20246;-82
2020/12/28 00:47:35;;;;;;;18.90;12.37;;;0.60;90.10;;;;;;5038988;28;20217;-83
2020/12/28 00:50:07;;;;;;;18.40;13.07;;;0.60;90.10;;;;;;5038002;28;20201;-81
2020/12/28 00:52:35;;;;;;;21.40;12.90;;;0.70;90.20;;;;;;5039043;28;20209;-83
2020/12/28 00:55:03;;;;;;;20.30;12.63;;;0.60;90.20;;;;;;5027037;28;20275;-83
2020/12/28 00:57:31;;;;;;;19.50;12.60;;;0.70;90.20;;;;;;5036294;28;20212;-81
2020/12/28 00:59:59;;;;;;;18.97;12.80;;;0.80;90.20;;;;;;5031369;28;20241;-82
2020/12/28 01:02:29;;;;;;;18.50;11.50;;;0.60;90.20;;;;;;5033003;28;20371;-80
2020/12/28 01:04:57;;;;;;;18.03;11.60;;;0.70;90.30;;;;;;5029584;28;20638;-81
2020/12/28 01:07:24;;;;;;;22.97;13.23;;;0.70;90.20;;;;;;5022855;28;20305;-81
2020/12/28 01:09:53;;;;;;;17.47;10.27;;;0.80;90.10;;;;;;5027854;28;21007;-82
2020/12/28 01:12:20;;;;;;;17.57;11.23;;;0.90;90.10;;;;;;5026890;28;20679;-81
2020/12/28 01:14:52;;;;;;;15.13;11.03;;;1.00;90.00;;;;;;5041725;28;20193;-81
2020/12/28 01:17:19;;;;;;;17.60;11.70;;;1.00;89.90;;;;;;5032388;28;20429;-81
2020/12/28 01:19:47;;;;;;;18.23;11.53;;;1.00;89.90;;;;;;5025974;28;20239;-81
2020/12/28 01:22:14;;;;;;;18.33;11.53;;;1.00;90.00;;;;;;5009135;28;20195;-81
2020/12/28 01:24:42;;;;;;;16.93;10.70;;;1.10;89.90;;;;;;5030798;28;20209;-81
2020/12/28 01:27:10;;;;;;;18.67;10.73;;;1.10;90.00;;;;;;5022841;28;20495;-82
2020/12/28 01:29:38;;;;;;;16.77;10.83;;;1.20;89.80;;;;;;5026100;28;20198;-81
2020/12/28 01:32:07;;;;;;;18.93;11.93;;;1.20;89.80;;;;;;5024438;28;20453;-82
2020/12/28 01:34:34;;;;;;;18.30;12.40;;;1.20;90.00;;;;;;5029353;28;20588;-79
2020/12/28 01:37:02;;;;;;;18.97;12.07;;;1.30;89.90;;;;;;5024539;28;20393;-81
2020/12/28 01:39:29;;;;;;;20.60;13.20;;;1.30;89.90;;;;;;5025581;28;20268;-82
2020/12/28 01:41:57;;;;;;;16.60;11.37;;;1.40;89.90;;;;;;5031181;28;20282;-82
2020/12/28 01:44:25;;;;;;;17.53;11.80;;;1.40;89.80;;;;;;5033837;28;20199;-82
2020/12/28 01:46:53;;;;;;;18.03;11.43;;;1.40;89.60;;;;;;5041096;28;20330;-81
2020/12/28 01:49:22;;;;;;;18.60;11.77;;;1.40;89.80;;;;;;5043497;28;20357;-82
2020/12/28 01:51:50;;;;;;;17.97;11.93;;;1.50;89.70;;;;;;5048622;28;20181;-80
2020/12/28 01:54:19;;;;;;;18.90;12.40;;;1.50;89.70;;;;;;5043145;28;20183;-80
2020/12/28 01:56:48;;;;;;;19.83;12.00;;;1.40;89.70;;;;;;5031701;28;20293;-82
2020/12/28 01:59:16;;;;;;;17.73;12.03;;;1.50;89.80;;;;;;5024043;28;20207;-79
2020/12/28 02:01:45;;;;;;;20.13;11.83;;;1.50;89.80;;;;;;5026402;28;20202;-79
2020/12/28 02:04:15;;;;;;;19.60;12.63;;;1.50;89.80;;;;;;5014397;28;20270;-82
2020/12/28 02:06:43;;;;;;;17.77;11.77;;;1.50;89.80;;;;;;5033069;28;20194;-81
2020/12/28 02:09:11;;;;;;;18.23;12.20;;;1.50;89.90;;;;;;5022544;28;20210;-82
2020/12/28 02:11:38;;;;;;;16.97;11.30;;;1.60;89.90;;;;;;5030161;28;20199;-81
2020/12/28 02:14:06;;;;;;;17.10;11.77;;;1.60;89.80;;;;;;5027228;28;20210;-82
2020/12/28 02:16:35;;;;;;;17.57;11.63;;;1.60;89.90;;;;;;5025561;28;20537;-80
2020/12/28 02:19:03;;;;;;;16.80;11.13;;;1.60;90.00;;;;;;5031123;28;20233;-83
2020/12/28 02:21:36;;;;;;;17.03;11.93;;;1.70;90.00;;;;;;5021929;28;20195;-79
2020/12/28 02:24:04;;;;;;;18.53;11.73;;;1.70;90.00;;;;;;5025609;28;20561;-80
2020/12/28 02:26:31;;;;;;;16.87;12.60;;;1.80;89.90;;;;;;5022034;28;20223;-81
2020/12/28 02:28:59;;;;;;;15.70;11.73;;;1.80;89.80;;;;;;5027165;28;20198;-81
2020/12/28 02:31:26;;;;;;;18.47;12.10;;;1.90;89.70;;;;;;5028474;28;20469;-80
2020/12/28 02:33:54;;;;;;;18.03;12.33;;;1.80;89.80;;;;;;5029373;28;20195;-80
2020/12/28 02:36:21;;;;;;;21.00;12.43;;;1.90;89.80;;;;;;5036973;28;20669;-81
2020/12/28 02:38:50;;;;;;;18.03;12.13;;;1.90;89.90;;;;;;5024280;28;20309;-82
2020/12/28 02:41:17;;;;;;;19.03;12.63;;;2.10;90.00;;;;;;5021432;28;20209;-80
2020/12/28 02:43:48;;;;;;;17.77;12.00;;;2.00;90.00;;;;;;5029364;28;20214;-80
2020/12/28 02:46:16;;;;;;;17.30;11.40;;;2.00;89.90;;;;;;5012914;28;20515;-80
2020/12/28 02:48:44;;;;;;;16.97;11.73;;;2.00;89.80;;;;;;5037745;28;20323;-81
2020/12/28 02:51:13;;;;;;;16.63;11.57;;;2.10;89.70;;;;;;5025023;28;20209;-82
2020/12/28 02:53:41;;;;;;;17.10;11.57;;;2.10;89.70;;;;;;5025431;28;20210;-79
2020/12/28 02:56:09;;;;;;;17.07;11.67;;;2.20;89.70;;;;;;5046730;28;20380;-81
2020/12/28 02:58:37;;;;;;;16.73;11.70;;;2.20;89.70;;;;;;5026064;28;20871;-80
2020/12/28 03:01:04;;;;;;;18.33;12.00;;;2.20;89.70;;;;;;5021276;28;20187;-79
2020/12/28 03:03:32;;;;;;;18.07;11.70;;;2.20;89.70;;;;;;5020350;28;20820;-81
2020/12/28 03:06:00;;;;;;;17.23;11.60;;;2.20;89.70;;;;;;5021850;28;20515;-79
2020/12/28 03:08:27;;;;;;;15.77;11.27;;;2.30;89.70;;;;;;5020358;28;20199;-82
2020/12/28 03:10:55;;;;;;;17.03;11.70;;;2.40;89.70;;;;;;5022065;28;20218;-82
2020/12/28 03:13:23;;;;;;;17.77;11.83;;;2.30;89.60;;;;;;5022454;28;20245;-79
2020/12/28 03:15:51;;;;;;;18.60;12.27;;;2.30;89.60;;;;;;5034353;28;20239;-80
2020/12/28 03:18:18;;;;;;;14.67;11.27;;;2.30;89.70;;;;;;5051825;28;20175;-81
2020/12/28 03:20:46;;;;;;;15.93;11.60;;;2.30;89.80;;;;;;5039459;28;20216;-81
2020/12/28 03:23:13;;;;;;;17.07;11.43;;;2.30;89.90;;;;;;5039625;28;20199;-80
2020/12/28 03:25:41;;;;;;;19.40;11.40;;;2.30;89.90;;;;;;5034047;28;20277;-81
2020/12/28 03:28:08;;;;;;;16.43;11.73;;;2.30;89.90;;;;;;5036101;28;20254;-81
2020/12/28 03:30:36;;;;;;;16.93;11.70;;;2.30;89.70;;;;;;5036424;28;20823;-81
2020/12/28 03:33:04;;;;;;;21.80;12.03;;;2.30;89.80;;;;;;5037395;28;20424;-80
2020/12/28 03:35:32;;;;;;;16.27;11.93;;;2.20;90.00;;;;;;5034624;28;20203;-79
2020/12/28 03:37:59;;;;;;;16.53;12.17;;;2.20;90.10;;;;;;5018668;28;20206;-82
2020/12/28 03:40:26;;;;;;;19.23;11.83;;;2.20;90.20;;;;;;5020875;28;20332;-82
2020/12/28 03:42:54;;;;;;;16.60;10.73;;;2.10;90.20;;;;;;5024009;28;20194;-81
2020/12/28 03:45:21;;;;;;;15.30;10.87;;;2.20;90.30;;;;;;5031177;28;20205;-82
2020/12/28 03:47:50;;;;;;;15.43;11.07;;;2.10;90.20;;;;;;5029370;28;20230;-81
2020/12/28 03:50:18;;;;;;;18.37;11.33;;;2.10;90.30;;;;;;5003799;28;20198;-81
2020/12/28 03:52:47;;;;;;;16.30;11.03;;;2.30;90.40;;;;;;5019702;28;20728;-81
2020/12/28 03:55:14;;;;;;;16.97;11.07;;;2.20;90.40;;;;;;5023990;28;20203;-81
2020/12/28 03:57:42;;;;;;;14.90;10.17;;;2.20;90.40;;;;;;5019302;28;20802;-81
2020/12/28 04:00:09;;;;;;;18.17;11.80;;;2.20;90.40;;;;;;5019439;28;20226;-80
2020/12/28 04:02:38;;;;;;;16.40;11.23;;;2.20;90.30;;;;;;5026695;28;20454;-81
2020/12/28 04:05:06;;;;;;;16.17;11.40;;;2.20;90.40;;;;;;5022290;28;20195;-81
2020/12/28 04:07:34;;;;;;;14.20;9.27;;;2.40;90.50;;;;;;5020219;28;20695;-81
2020/12/28 04:10:01;;;;;;;15.70;10.30;;;2.20;90.40;;;;;;5022758;28;20198;-80
2020/12/28 04:12:29;;;;;;;15.80;9.53;;;2.20;90.40;;;;;;5019270;28;20203;-82
2020/12/28 04:14:57;;;;;;;16.50;11.00;;;2.30;90.50;;;;;;5021836;28;20282;-81
2020/12/28 04:17:24;;;;;;;16.40;11.63;;;2.30;90.50;;;;;;5026744;28;20194;-79
2020/12/28 04:19:54;;;;;;;17.03;11.30;;;2.20;90.50;;;;;;5042381;28;20233;-81
2020/12/28 04:22:22;;;;;;;18.17;11.23;;;2.30;90.60;;;;;;5031882;28;20203;-82
2020/12/28 04:24:49;;;;;;;18.23;11.53;;;2.20;90.70;;;;;;5020912;28;20221;-81
2020/12/28 04:27:17;;;;;;;15.73;10.77;;;2.10;90.70;;;;;;5019353;28;20195;-81
2020/12/28 04:29:44;;;;;;;17.33;11.33;;;2.20;90.80;;;;;;5018831;28;20663;-81
2020/12/28 04:32:11;;;;;;;14.83;11.37;;;2.10;90.80;;;;;;5019136;28;20661;-80
2020/12/28 04:34:39;;;;;;;16.57;11.87;;;2.10;90.90;;;;;;5019201;28;20206;-81
2020/12/28 04:37:06;;;;;;;15.73;11.50;;;2.20;91.00;;;;;;5023456;28;20210;-81
2020/12/28 04:39:35;;;;;;;17.93;11.60;;;2.20;91.00;;;;;;5015808;28;20272;-81
2020/12/28 04:42:02;;;;;;;17.20;11.30;;;2.20;91.00;;;;;;5026791;28;20203;-81
2020/12/28 04:44:30;;;;;;;16.07;11.03;;;2.20;91.00;;;;;;5043198;28;20183;-82
2020/12/28 04:46:58;;;;;;;16.87;11.40;;;2.30;91.00;;;;;;5035544;28;20183;-81
2020/12/28 04:49:26;;;;;;;16.27;11.47;;;2.30;91.00;;;;;;5040223;28;20187;-80
2020/12/28 04:51:55;;;;;;;15.47;10.90;;;2.40;91.00;;;;;;5021797;28;20215;-79
2020/12/28 04:54:23;;;;;;;15.70;10.90;;;2.40;91.00;;;;;;5022731;28;20175;-80
2020/12/28 04:56:52;;;;;;;19.73;12.40;;;2.50;90.90;;;;;;5022265;28;20209;-81
2020/12/28 04:59:19;;;;;;;18.90;11.60;;;2.50;90.90;;;;;;5026406;28;20662;-79
2020/12/28 05:01:53;;;;;;;13.63;9.83;;;2.60;90.80;;;;;;5025928;28;20220;-80
2020/12/28 05:04:23;;;;;;;15.60;10.83;;;2.60;90.80;;;;;;5019598;28;20222;-80
2020/12/28 05:06:58;;;;;;;19.73;10.80;;;2.60;90.80;;;;;;5022462;28;21051;-81
2020/12/28 05:09:26;;;;;;;18.23;12.00;;;2.60;90.90;;;;;;5026276;28;20215;-80
2020/12/28 05:12:01;;;;;;;17.73;11.40;;;2.60;90.90;;;;;;5031662;28;20203;-81
2020/12/28 05:14:32;;;;;;;18.47;11.70;;;2.70;90.90;;;;;;5041992;28;20615;-81
2020/12/28 05:17:02;;;;;;;16.23;11.67;;;2.70;90.80;;;;;;5033405;28;20187;-82
2020/12/28 05:19:30;;;;;;;16.73;12.23;;;2.70;90.90;;;;;;5022203;28;20339;-79
2020/12/28 05:21:59;;;;;;;15.17;11.03;;;2.70;91.00;;;;;;5020997;28;20202;-80
2020/12/28 05:24:28;;;;;;;16.47;10.70;;;2.70;91.00;;;;;;5021180;28;20676;-80
2020/12/28 05:26:58;;;;;;;18.23;11.80;;;2.80;91.00;;;;;;5019873;28;20199;-82
2020/12/28 05:29:29;;;;;;;16.57;11.63;;;2.80;91.00;;;;;;5020599;28;20893;-79
2020/12/28 05:31:57;;;;;;;18.23;11.83;;;2.80;91.00;;;;;;5032971;28;20204;-82
2020/12/28 05:34:26;;;;;;;17.57;10.60;;;2.80;91.00;;;;;;5029570;28;20198;-80
2020/12/28 05:36:56;;;;;;;19.07;12.03;;;2.80;91.10;;;;;;5026886;28;20247;-81
2020/12/28 05:39:25;;;;;;;16.40;11.47;;;2.80;91.10;;;;;;5038459;28;20241;-80
2020/12/28 05:41:56;;;;;;;15.73;11.03;;;2.80;91.10;;;;;;5058361;22;20300;-79
2020/12/28 05:44:25;;;;;;;16.23;11.03;;;2.80;91.10;;;;;;5028028;28;20205;-80
2020/12/28 05:47:02;;;;;;;18.73;12.43;;;2.80;91.20;;;;;;5050161;28;20426;-81
2020/12/28 05:49:34;;;;;;;17.03;11.13;;;2.80;91.10;;;;;;5032382;28;20213;-81
2020/12/28 05:52:02;;;;;;;16.57;11.53;;;2.90;91.10;;;;;;5043613;28;20202;-80
2020/12/28 05:54:29;;;;;;;18.20;11.33;;;2.90;91.10;;;;;;5041293;28;20200;-81
2020/12/28 05:56:58;;;;;;;17.57;11.93;;;2.90;91.10;;;;;;5045675;28;20453;-82
2020/12/28 05:59:26;;;;;;;17.40;11.20;;;2.90;91.20;;;;;;5036809;28;20229;-81
2020/12/28 06:01:54;;;;;;;20.87;12.33;;;2.90;91.20;;;;;;5026401;28;20571;-81
2020/12/28 06:04:22;;;;;;;16.57;11.47;;;2.90;91.20;;;;;;5022329;28;20199;-82
2020/12/28 06:06:55;;;;;;;15.20;10.10;;;2.90;91.20;;;;;;5019104;28;20317;-80
2020/12/28 06:09:23;;;;;;;18.20;11.30;;;2.90;91.20;;;;;;5028761;28;20267;-79
2020/12/28 06:12:01;;;;;;;20.30;12.27;;;2.80;91.30;;;;;;5042210;28;20264;-79
2020/12/28 06:14:34;;;;;;;17.37;11.53;;;2.80;91.30;;;;;;5043767;28;20189;-81
2020/12/28 06:17:05;;;;;;;16.17;11.53;;;2.80;91.40;;;;;;5014814;28;20654;-80
2020/12/28 06:19:33;;;;;;;18.20;11.70;;;2.90;91.50;;;;;;5016020;28;20295;-82
2020/12/28 06:22:01;;;;;;;18.47;12.27;;;2.90;91.40;;;;;;5018541;28;20604;-81
2020/12/28 06:24:30;;;;;;;18.07;12.43;;;2.80;91.40;;;;;;5000917;28;20680;-80
2020/12/28 06:27:02;;;;;;;22.13;13.10;;;2.80;91.50;;;;;;5018065;28;20556;-80
2020/12/28 06:29:30;;;;;;;17.27;12.27;;;2.80;91.50;;;;;;5016321;28;20202;-81
2020/12/28 06:31:58;;;;;;;17.70;12.40;;;2.80;91.60;;;;;;5024953;28;20628;-82
2020/12/28 06:34:26;;;;;;;18.40;11.90;;;2.90;91.50;;;;;;5020779;28;20257;-80
2020/12/28 06:37:00;;;;;;;20.30;13.53;;;2.90;91.60;;;;;;5020122;28;20341;-80
2020/12/28 06:39:29;;;;;;;20.00;12.37;;;2.80;91.60;;;;;;5025488;28;20241;-82
2020/12/28 06:42:10;;;;;;;20.13;13.40;;;2.90;91.70;;;;;;5028277;28;20259;-81
2020/12/28 06:44:39;;;;;;;18.77;12.30;;;2.80;91.80;;;;;;5041344;28;20178;-81
2020/12/28 06:47:19;;;;;;;19.67;12.30;;;2.80;91.80;;;;;;5043384;28;20171;-80
2020/12/28 06:49:47;;;;;;;20.57;13.23;;;3.00;91.80;;;;;;5022389;28;20193;-82
2020/12/28 06:52:16;;;;;;;20.10;13.27;;;2.80;91.70;;;;;;5025571;28;20199;-81
2020/12/28 06:54:43;;;;;;;21.47;14.13;;;2.80;91.70;;;;;;5021280;28;20203;-82
2020/12/28 06:57:11;;;;;;;21.53;13.33;;;2.70;91.80;;;;;;5017309;28;20265;-79
2020/12/28 06:59:40;;;;;;;23.43;13.73;;;2.70;91.80;;;;;;5011251;28;20227;-80
2020/12/28 07:02:08;;;;;;;19.67;13.50;;;2.70;91.90;;;;;;5012481;28;20829;-80
2020/12/28 07:04:38;;;;;;;19.10;13.37;;;2.70;92.00;;;;;;5020768;28;20675;-80
2020/12/28 07:07:06;;;;;;;22.07;14.20;;;2.70;92.00;;;;;;5015783;28;20716;-82
2020/12/28 07:09:34;;;;;;;23.20;13.93;;;2.70;91.90;;;;;;4997549;28;20580;-83
2020/12/28 07:12:08;;;;;;;22.67;14.30;;;2.70;92.00;;;;;;5016919;28;20248;-83
2020/12/28 07:14:37;;;;;;;23.33;15.00;;;2.70;92.00;;;;;;5008810;28;20207;-80
2020/12/28 07:17:06;;;;;;;21.67;14.43;;;2.80;92.00;;;;;;5018181;28;20276;-82
2020/12/28 07:19:34;;;;;;;22.23;14.77;;;2.90;92.00;;;;;;4989519;28;20226;-81
2020/12/28 07:22:03;;;;;;;20.63;13.30;;;2.80;91.90;;;;;;5023966;28;20221;-82
2020/12/28 07:24:30;;;;;;;19.07;12.50;;;2.80;91.90;;;;;;5023579;28;20454;-81
2020/12/28 07:26:58;;;;;;;21.23;13.67;;;2.80;91.90;;;;;;5026273;28;20401;-78
2020/12/28 07:29:26;;;;;;;18.80;13.57;;;2.90;92.00;;;;;;5018015;28;20433;-81
2020/12/28 07:32:08;;;;;;;23.83;14.00;;;2.80;92.00;;;;;;5021212;28;20191;-83
2020/12/28 07:34:36;;;;;;;20.77;13.50;;;2.80;92.00;;;;;;5029553;28;20198;-82
2020/12/28 07:37:05;;;;;;;20.63;14.27;;;2.80;92.00;;;;;;5039603;28;20262;-83
2020/12/28 07:39:35;;;;;;;21.27;14.17;;;2.80;92.10;;;;;;5033031;28;20212;-81
2020/12/28 07:42:03;;;;;;;20.57;13.93;;;2.80;92.00;;;;;;5030424;28;20762;-83
2020/12/28 07:44:31;;;;;;;20.53;13.50;;;2.70;92.00;;;;;;5016953;28;20360;-83
2020/12/28 07:47:03;;;;;;;21.50;14.63;;;2.70;92.00;;;;;;5028702;28;20251;-83
2020/12/28 07:49:36;;;;;;;20.93;14.47;;;2.70;92.00;;;;;;5016973;28;20744;-79
2020/12/28 07:52:11;;;;;;;23.67;14.27;;;2.70;92.10;;;;;;5024100;28;20191;-82
2020/12/28 07:54:48;;;;;;;20.60;13.77;;;2.70;92.20;;;;;;5036544;28;20198;-81
2020/12/28 07:57:20;;;;;;;24.53;14.80;;;2.80;92.20;;;;;;5033729;28;20220;-80
2020/12/28 08:00:00;;;;;;;22.57;14.57;;;2.80;92.20;;;;;;5027070;28;20568;-82
2020/12/28 08:02:50;;;;;;;21.20;13.73;;;2.80;92.20;;;;;;5019861;28;20229;-81
2020/12/28 08:05:22;;;;;;;20.43;13.70;;;2.90;92.10;;;;;;4976027;28;20354;-81
2020/12/28 08:07:50;;;;;;;21.07;13.43;;;3.00;92.10;;;;;;5020435;28;20198;-81
2020/12/28 08:10:18;;;;;;;19.70;13.97;;;3.00;92.00;;;;;;5022397;28;20210;-80
2020/12/28 08:12:51;;;;;;;20.57;13.80;;;3.00;92.00;;;;;;5023336;28;20207;-80
2020/12/28 08:15:28;;;;;;;21.97;13.87;;;3.00;92.00;;;;;;4974540;28;20213;-83
2020/12/28 08:18:07;;;;;;;22.97;14.30;;;3.00;92.00;;;;;;5017419;28;20201;-82
2020/12/28 08:20:35;;;;;;;18.57;12.60;;;3.10;92.00;;;;;;5012827;28;20227;-80
2020/12/28 08:23:05;;;;;;;22.53;15.27;;;3.10;92.00;;;;;;5010067;28;20209;-80
2020/12/28 08:25:33;;;;;;;18.07;13.17;;;3.10;92.00;;;;;;4967838;28;20633;-81
2020/12/28 08:28:03;;;;;;;19.20;13.20;;;3.20;92.00;;;;;;5010247;28;20315;-81
2020/12/28 08:30:31;;;;;;;22.33;13.50;;;3.30;92.00;;;;;;5029141;28;20211;-80
2020/12/28 08:33:01;;;;;;;19.33;13.37;;;3.30;91.90;;;;;;5019571;28;20199;-81
2020/12/28 08:35:31;;;;;;;20.50;13.13;;;3.40;91.90;;;;;;4958250;28;20223;-80
2020/12/28 08:37:59;;;;;;;19.87;13.47;;;3.50;91.70;;;;;;5014894;28;20242;-82
2020/12/28 08:40:28;;;;;;;18.97;13.50;;;3.60;91.60;;;;;;5013990;28;20545;-82
2020/12/28 08:42:58;;;;;;;20.20;13.23;;;3.60;91.40;;;;;;5017107;28;20422;-81
2020/12/28 08:45:31;;;;;;;18.77;13.13;;;3.60;91.50;;;;;;4978136;28;20320;-81
2020/12/28 08:48:00;;;;;;;19.93;13.90;;;3.60;91.50;;;;;;5010165;28;20188;-81
2020/12/28 08:50:34;;;;;;;18.53;12.63;;;3.60;91.50;;;;;;5016026;28;20666;-82
2020/12/28 08:53:03;;;;;;;21.03;14.30;;;3.70;91.50;;;;;;5015504;28;20254;-81
2020/12/28 08:55:32;;;;;;;20.47;13.00;;;3.70;91.50;;;;;;4974978;28;20226;-82
2020/12/28 08:58:00;;;;;;;19.13;13.17;;;3.80;91.50;;;;;;5018810;28;20205;-82
2020/12/28 09:00:28;;;;;;;20.17;13.70;;;3.80;91.40;;;;;;5005045;28;20660;-80
2020/12/28 09:02:57;;;;;;;18.87;12.70;;;3.90;91.40;;;;;;5032926;28;20590;-82
2020/12/28 09:05:27;;;;;;;20.03;13.53;;;4.00;91.30;;;;;;4992063;28;20203;-80
2020/12/28 09:07:55;;;;;;;19.30;13.10;;;4.00;91.20;;;;;;5031166;28;20198;-81
2020/12/28 09:10:22;;;;;;;18.73;13.17;;;4.00;91.20;;;;;;5019871;28;20327;-80
2020/12/28 09:12:51;;;;;;;19.83;12.40;;;4.10;91.20;;;;;;5020660;28;20204;-82
2020/12/28 09:15:19;;;;;;;16.97;12.73;;;4.10;91.20;;;;;;4969657;28;20227;-81
2020/12/28 09:17:47;;;;;;;17.47;13.13;;;4.20;91.20;;;;;;5024531;28;20730;-82
2020/12/28 09:20:15;;;;;;;18.87;12.13;;;4.30;91.20;;;;;;4996102;28;20252;-82
2020/12/28 09:22:43;;;;;;;16.37;11.50;;;4.30;91.00;;;;;;5020353;28;20292;-82
2020/12/28 09:25:12;;;;;;;16.90;12.40;;;4.30;90.90;;;;;;4992003;28;20549;-84
2020/12/28 09:27:40;;;;;;;17.63;13.30;;;4.30;91.00;;;;;;5014004;28;20203;-84
2020/12/28 09:30:09;;;;;;;17.00;12.00;;;4.30;91.00;;;;;;5018117;28;20628;-80
2020/12/28 09:32:41;;;;;;;17.07;12.03;;;4.30;91.10;;;;;;5002718;28;20201;-81
2020/12/28 09:35:10;;;;;;;20.93;11.97;;;4.30;91.00;;;;;;4974833;28;20432;-83
2020/12/28 09:37:38;;;;;;;16.50;11.10;;;4.30;91.00;;;;;;5005710;28;20212;-79
2020/12/28 09:40:07;;;;;;;17.23;11.37;;;4.30;91.00;;;;;;5013577;28;20233;-82
2020/12/28 09:42:35;;;;;;;20.90;11.50;;;4.40;90.90;;;;;;5011950;28;20550;-80
2020/12/28 09:47:52;;;;;;;19.63;12.10;;;4.60;90.80;;;;;;5012135;28;20206;-79
2020/12/28 09:50:20;;;;;;;17.43;11.33;;;4.70;90.70;;;;;;5013535;28;20217;-80
2020/12/28 09:52:47;;;;;;;13.40;10.70;;;4.80;90.70;;;;;;5017107;28;20673;-81
2020/12/28 09:55:15;;;;;;;20.03;12.20;;;4.90;90.50;;;;;;4996100;28;20208;-81
2020/12/28 09:57:42;;;;;;;16.20;10.87;;;5.00;90.50;;;;;;5007530;28;20203;-79
2020/12/28 10:00:11;;;;;;;16.97;11.20;;;5.00;90.50;;;;;;5023860;28;20284;-79
2020/12/28 10:02:40;;;;;;;15.07;11.00;;;5.00;90.40;;;;;;5020323;28;20235;-79
2020/12/28 10:05:10;;;;;;;15.37;10.03;;;5.10;90.30;;;;;;5003873;28;20198;-83
2020/12/28 10:07:38;;;;;;;17.80;10.53;;;5.10;90.30;;;;;;5025953;28;20198;-80
2020/12/28 10:10:07;;;;;;;16.83;11.13;;;5.10;90.30;;;;;;5010807;28;20202;-81
2020/12/28 10:12:39;;;;;;;16.47;12.03;;;5.00;90.40;;;;;;5013873;28;20198;-80
2020/12/28 10:15:07;;;;;;;15.67;11.50;;;5.10;90.50;;;;;;4995895;28;20535;-83
2020/12/28 10:17:36;;;;;;;16.90;11.97;;;5.10;90.50;;;;;;5024878;28;20550;-81
2020/12/28 10:20:05;;;;;;;14.67;11.73;;;5.30;90.50;;;;;;5020321;28;20580;-81
2020/12/28 10:22:48;;;;;;;15.57;11.13;;;5.20;90.40;;;;;;5013566;28;20199;-80
2020/12/28 10:25:17;;;;;;;18.47;10.77;;;5.30;90.30;;;;;;4994349;28;20566;-82
2020/12/28 10:27:44;;;;;;;14.97;10.17;;;5.30;90.40;;;;;;5009214;28;20222;-81
2020/12/28 10:30:12;;;;;;;14.40;10.03;;;5.40;90.40;;;;;;5029895;28;20224;-80
2020/12/28 10:32:40;;;;;;;12.40;9.80;;;5.40;90.40;;;;;;5031860;28;20337;-82
2020/12/28 10:35:09;;;;;;;16.37;11.23;;;5.40;90.30;;;;;;4995509;28;20233;-81
2020/12/28 10:37:38;;;;;;;13.60;10.20;;;5.30;90.40;;;;;;5024617;28;20198;-81
2020/12/28 10:40:07;;;;;;;14.80;10.20;;;5.40;90.40;;;;;;5024155;28;20588;-80
2020/12/28 10:42:35;;;;;;;13.53;9.73;;;5.40;90.30;;;;;;5024465;28;20203;-81
2020/12/28 10:45:04;;;;;;;13.87;9.90;;;5.40;90.40;;;;;;4986378;28;20730;-80
2020/12/28 10:47:34;;;;;;;13.90;9.63;;;5.40;90.40;;;;;;5017049;28;20454;-80
2020/12/28 10:50:03;;;;;;;12.57;10.00;;;5.40;90.40;;;;;;5016075;28;20206;-80
2020/12/28 10:52:31;;;;;;;10.80;8.77;;;5.40;90.40;;;;;;5013357;28;20441;-83
2020/12/28 10:54:59;;;;;;;12.80;9.27;;;5.40;90.40;;;;;;4992902;28;20207;-80
2020/12/28 10:57:27;;;;;;;12.40;9.57;;;5.40;90.40;;;;;;5017364;28;20202;-79
2020/12/28 10:59:55;;;;;;;10.20;8.90;;;5.40;90.40;;;;;;5014804;28;20219;-82
2020/12/28 11:02:22;;;;;;;11.53;9.23;;;5.40;90.40;;;;;;5008056;28;20202;-80
2020/12/28 11:04:52;;;;;;;12.50;8.77;;;5.40;90.50;;;;;;5009511;28;20263;-82
2020/12/28 11:07:20;;;;;;;11.60;9.27;;;5.40;90.60;;;;;;5021672;28;20214;-80
2020/12/28 11:09:48;;;;;;;13.10;9.77;;;5.40;90.50;;;;;;5035435;28;20182;-80
2020/12/28 11:12:17;;;;;;;12.10;9.10;;;5.50;90.50;;;;;;5031044;28;20437;-79
2020/12/28 11:14:44;;;;;;;9.73;7.70;;;5.50;90.50;;;;;;5015147;28;20222;-79
2020/12/28 11:17:12;;;;;;;9.00;6.07;;;5.60;90.50;;;;;;5027338;28;20207;-80
2020/12/28 11:19:41;;;;;;;13.27;8.60;;;5.70;90.40;;;;;;5032547;28;20427;-79
2020/12/28 11:22:09;;;;;;;14.87;11.60;;;5.70;90.20;;;;;;5020748;28;20223;-83
2020/12/28 11:24:39;;;;;;;29.43;17.77;;;5.80;90.20;;;;;;4994962;28;20222;-81
2020/12/28 11:27:07;;;;;;;23.90;19.77;;;5.80;90.20;;;;;;5003087;28;20304;-80
2020/12/28 11:29:37;;;;;;;26.43;23.23;;;5.90;90.20;;;;;;4995228;28;20637;-81
2020/12/28 11:32:04;;;;;;;15.10;12.80;;;5.90;90.20;;;;;;5010929;28;20237;-80
2020/12/28 11:34:32;;;;;;;12.20;9.50;;;5.80;90.20;;;;;;4993976;28;20524;-81
2020/12/28 11:36:59;;;;;;;14.70;9.47;;;5.90;90.20;;;;;;5008563;28;20214;-81
2020/12/28 11:39:28;;;;;;;12.17;8.70;;;5.90;90.20;;;;;;5014479;28;20647;-80
2020/12/28 11:41:57;;;;;;;12.00;9.07;;;5.90;90.30;;;;;;5022048;28;20302;-80
2020/12/28 11:44:30;;;;;;;15.40;9.00;;;6.00;90.30;;;;;;4996584;28;20246;-84
2020/12/28 11:46:58;;;;;;;7.30;6.00;;;5.90;90.30;;;;;;5002370;28;20451;-81
2020/12/28 11:49:25;;;;;;;12.17;8.87;;;5.90;90.20;;;;;;5011561;28;20190;-80
2020/12/28 11:51:57;;;;;;;12.07;8.53;;;5.90;90.20;;;;;;5026485;28;20563;-83
2020/12/28 11:54:24;;;;;;;13.27;9.13;;;5.90;90.30;;;;;;5010166;28;20203;-81
2020/12/28 11:56:53;;;;;;;11.90;9.30;;;6.00;90.30;;;;;;5032396;28;20191;-80
2020/12/28 11:59:22;;;;;;;11.40;8.70;;;6.10;90.30;;;;;;5040174;28;20260;-82
2020/12/28 12:01:50;;;;;;;12.40;8.97;;;6.00;90.30;;;;;;5025491;28;20509;-81
2020/12/28 12:04:47;;;;;;;11.47;8.57;;;6.00;90.30;;;;;;5002234;28;20285;-83
2020/12/28 12:07:07;;;;;;;11.60;8.67;;;6.10;90.20;;;;;;5004985;28;20220;-82
2020/12/28 12:09:35;;;;;;;12.10;8.43;;;6.10;90.20;;;;;;5026143;28;20275;-83
2020/12/28 12:12:03;;;;;;;11.07;8.20;;;6.10;90.20;;;;;;5029853;28;20269;-82
2020/12/28 12:14:34;;;;;;;11.23;8.90;;;6.10;90.30;;;;;;4981334;28;20391;-82
2020/12/28 12:17:01;;;;;;;10.73;8.63;;;6.00;90.20;;;;;;5004388;28;20284;-83
2020/12/28 12:19:29;;;;;;;9.93;8.03;;;6.10;90.30;;;;;;5018768;28;20567;-83
2020/12/28 12:21:57;;;;;;;12.40;8.33;;;6.10;90.30;;;;;;5017905;28;20520;-83
2020/12/28 12:24:27;;;;;;;9.60;7.80;;;6.10;90.30;;;;;;4976669;28;20757;-82
2020/12/28 12:26:55;;;;;;;12.37;8.37;;;6.10;90.20;;;;;;5008302;28;20778;-80
2020/12/28 12:29:23;;;;;;;10.03;7.90;;;6.20;90.10;;;;;;5021097;28;20203;-80
2020/12/28 12:31:52;;;;;;;9.67;7.47;;;6.10;90.10;;;;;;5015784;28;20207;-83
2020/12/28 12:34:24;;;;;;;10.07;7.53;;;6.30;90.00;;;;;;4997782;28;20244;-81
2020/12/28 12:36:55;;;;;;;10.60;7.83;;;6.40;90.00;;;;;;5009606;28;20930;-84
2020/12/28 12:39:24;;;;;;;9.73;8.00;;;6.40;89.90;;;;;;5014750;28;20204;-81
2020/12/28 12:41:51;;;;;;;7.43;6.67;;;6.50;89.60;;;;;;5018179;28;20338;-80
2020/12/28 12:44:20;;;;;;;9.27;6.93;;;6.60;89.30;;;;;;4996068;28;20227;-82
2020/12/28 12:46:48;;;;;;;7.23;6.27;;;6.70;89.10;;;;;;5004217;28;20225;-81
2020/12/28 12:49:18;;;;;;;11.20;8.03;;;6.70;89.00;;;;;;5014290;28;20607;-82